createdAt,value
2022-08-11T00:02:38.894Z,2.65
2022-08-11T00:07:46.767Z,2.50
2022-08-11T00:12:53.860Z,3.10
2022-08-11T00:18:01.246Z,3.25
2022-08-11T00:23:08.680Z,3.50
2022-08-11T00:28:29.394Z,3.05
2022-08-11T00:33:44.147Z,3.10
2022-08-11T00:38:53.279Z,2.90
2022-08-11T00:44:24.325Z,2.72
2022-08-11T00:49:40.848Z,2.25
2022-08-11T00:55:20.402Z,2.30
2022-08-11T01:00:25.676Z,2.15
2022-08-11T01:05:52.715Z,2.20
2022-08-11T01:11:35.353Z,2.08
2022-08-11T01:17:09.883Z,2.35
2022-08-11T01:22:50.262Z,2.20
2022-08-11T01:28:30.950Z,2.28
2022-08-11T01:34:09.856Z,2.15
2022-08-11T01:40:14.994Z,2.25
2022-08-11T01:45:28.942Z,2.60
2022-08-11T01:51:22.034Z,2.40
2022-08-11T01:56:39.302Z,2.50
2022-08-11T02:02:21.681Z,2.50
2022-08-11T02:07:35.397Z,2.63
2022-08-11T02:12:52.511Z,3.03
2022-08-11T02:18:07.074Z,2.67
2022-08-11T02:24:04.388Z,2.40
2022-08-11T02:29:12.889Z,2.88
2022-08-11T02:34:26.624Z,2.80
2022-08-11T02:39:40.614Z,2.80
2022-08-11T02:44:58.580Z,3.33
2022-08-11T02:50:08.062Z,2.97
2022-08-11T02:55:50.863Z,2.75
2022-08-11T03:00:58.319Z,2.70
2022-08-11T03:06:13.687Z,2.60
2022-08-11T03:11:41.270Z,2.80
2022-08-11T03:16:54.247Z,2.80
2022-08-11T03:22:06.770Z,2.70
2022-08-11T03:27:22.726Z,3.00
2022-08-11T03:32:32.042Z,3.05
2022-08-11T03:37:52.476Z,3.10
2022-08-11T03:43:04.080Z,2.90
2022-08-11T03:48:18.208Z,2.90
2022-08-11T03:53:45.483Z,2.85
2022-08-11T03:59:23.823Z,2.80
2022-08-11T04:05:07.484Z,2.60
2022-08-11T04:11:01.612Z,2.78
2022-08-11T04:16:25.438Z,2.95
2022-08-11T04:21:58.595Z,2.97
2022-08-11T04:27:36.745Z,3.15
2022-08-11T04:33:17.868Z,2.70
2022-08-11T04:38:39.429Z,2.77
2022-08-11T04:44:29.083Z,2.40
2022-08-11T04:50:12.954Z,2.67
2022-08-11T04:55:54.638Z,2.57
2022-08-11T05:01:37.135Z,2.35
2022-08-11T05:07:29.820Z,2.90
2022-08-11T05:12:42.390Z,2.60
2022-08-11T05:18:12.919Z,2.70
2022-08-11T05:23:36.769Z,2.50
2022-08-11T05:29:19.284Z,2.60
2022-08-11T05:34:46.564Z,2.40
2022-08-11T05:40:10.024Z,2.50
2022-08-11T05:45:50.715Z,2.25
2022-08-11T05:51:19.574Z,2.20
2022-08-11T05:56:35.115Z,2.00
2022-08-11T06:01:40.359Z,2.10
2022-08-11T06:06:58.921Z,2.25
2022-08-11T06:12:05.687Z,2.10
2022-08-11T06:17:10.665Z,2.10
2022-08-11T06:22:14.898Z,1.90
2022-08-11T06:27:21.909Z,2.05
2022-08-11T06:32:29.021Z,1.80
2022-08-11T06:37:43.562Z,1.75
2022-08-11T06:42:54.968Z,1.63
2022-08-11T06:48:03.055Z,1.60
2022-08-11T06:53:10.010Z,1.80
2022-08-11T06:58:35.249Z,1.50
2022-08-11T07:03:45.491Z,1.60
2022-08-11T07:09:28.116Z,1.50
2022-08-11T07:14:50.717Z,1.60
2022-08-11T07:20:17.249Z,1.60
2022-08-11T07:25:38.773Z,1.60
2022-08-11T07:30:43.786Z,1.57
2022-08-11T07:35:53.375Z,1.50
2022-08-11T07:41:00.210Z,1.60
2022-08-11T07:46:23.172Z,1.40
2022-08-11T07:51:45.465Z,1.60
2022-08-11T07:57:07.560Z,1.60
2022-08-11T08:02:31.510Z,1.53
2022-08-11T08:07:55.602Z,1.50
2022-08-11T08:13:17.047Z,1.55
2022-08-11T08:18:27.651Z,1.40
2022-08-11T08:23:35.707Z,1.63
2022-08-11T08:28:39.252Z,1.50
2022-08-11T08:33:44.187Z,1.70
2022-08-11T08:38:53.054Z,1.58
2022-08-11T08:44:15.219Z,1.42
2022-08-11T08:49:32.736Z,1.48
2022-08-11T08:54:39.603Z,1.50
2022-08-11T08:59:49.167Z,1.40
2022-08-11T09:04:53.948Z,1.43
2022-08-11T09:10:00.303Z,1.48
2022-08-11T09:15:08.164Z,1.40
2022-08-11T09:20:15.035Z,1.27
2022-08-11T09:25:39.387Z,1.50
2022-08-11T09:30:43.936Z,1.30
2022-08-11T09:35:49.659Z,1.50
2022-08-11T09:40:57.004Z,1.40
2022-08-11T09:46:02.019Z,1.60
2022-08-11T09:51:06.403Z,1.50
2022-08-11T09:56:31.706Z,1.63
2022-08-11T10:01:41.772Z,1.50
2022-08-11T10:07:04.223Z,1.70
2022-08-11T10:12:13.121Z,1.52
2022-08-11T10:17:19.848Z,1.40
2022-08-11T10:22:41.136Z,1.43
2022-08-11T10:28:30.831Z,1.50
2022-08-11T10:33:37.088Z,1.50
2022-08-11T10:38:41.650Z,1.60
2022-08-11T10:44:01.362Z,1.33
2022-08-11T10:49:07.853Z,1.48
2022-08-11T10:54:29.459Z,1.27
2022-08-11T10:59:35.898Z,1.30
2022-08-11T11:04:59.477Z,1.30
2022-08-11T11:10:06.235Z,1.23
2022-08-11T11:15:31.733Z,1.50
2022-08-11T11:20:43.696Z,1.10
2022-08-11T11:26:10.041Z,1.42
2022-08-11T11:31:29.448Z,1.30
2022-08-11T11:36:42.396Z,1.27
2022-08-11T11:41:46.345Z,1.13
2022-08-11T11:46:52.011Z,1.27
2022-08-11T11:51:57.382Z,1.40
2022-08-11T11:57:22.307Z,1.25
2022-08-11T12:02:28.321Z,1.40
2022-08-11T12:07:56.865Z,1.30
2022-08-11T12:13:26.138Z,1.27
2022-08-11T12:18:32.885Z,1.20
2022-08-11T12:23:55.738Z,1.03
2022-08-11T12:29:01.438Z,1.00
2022-08-11T12:34:08.717Z,1.10
2022-08-11T12:39:23.206Z,1.27
2022-08-11T12:44:46.998Z,1.20
2022-08-11T12:50:22.863Z,1.27
2022-08-11T12:55:41.370Z,1.20
2022-08-11T13:01:03.394Z,1.30
2022-08-11T13:06:09.844Z,1.30
2022-08-11T13:11:56.176Z,1.20
2022-08-11T13:17:09.734Z,1.33
2022-08-11T13:22:17.451Z,1.20
2022-08-11T13:27:21.546Z,1.00
2022-08-11T13:32:26.419Z,1.30
2022-08-11T13:38:19.622Z,1.27
2022-08-11T13:42:55.789Z,1.20
2022-08-11T13:48:01.250Z,1.90
2022-08-11T13:53:06.238Z,1.30
2022-08-11T13:58:19.484Z,1.20
2022-08-11T14:04:29.913Z,1.10
2022-08-11T14:09:00.645Z,1.20
2022-08-11T14:14:06.205Z,1.60
2022-08-11T14:19:13.469Z,1.37
2022-08-11T14:24:19.505Z,1.00
2022-08-11T14:29:24.679Z,1.27
2022-08-11T14:34:30.330Z,1.10
2022-08-11T14:39:39.352Z,1.02
2022-08-11T14:45:18.241Z,1.10
2022-08-11T14:50:24.866Z,1.17
2022-08-11T14:55:50.194Z,1.20
2022-08-11T15:00:55.546Z,1.17
2022-08-11T15:06:05.192Z,1.30
2022-08-11T15:11:31.504Z,1.00
2022-08-11T15:16:53.389Z,1.23
2022-08-11T15:22:14.005Z,1.00
2022-08-11T15:27:39.968Z,0.93
2022-08-11T15:33:03.158Z,1.08
2022-08-11T15:38:11.728Z,1.10
2022-08-11T15:43:40.321Z,1.40
2022-08-11T15:48:48.506Z,1.38
2022-08-11T15:53:58.398Z,1.10
2022-08-11T15:59:42.023Z,1.15
2022-08-11T16:04:48.301Z,1.02
2022-08-11T16:10:00.066Z,1.00
2022-08-11T16:15:25.563Z,1.00
2022-08-11T16:20:30.844Z,1.13
2022-08-11T16:27:05.883Z,1.30
2022-08-11T16:31:01.790Z,1.20
2022-08-11T16:36:24.347Z,1.38
2022-08-11T16:41:49.783Z,1.10
2022-08-11T16:47:00.649Z,1.20
2022-08-11T16:52:05.570Z,1.23
2022-08-11T16:57:29.986Z,1.33
2022-08-11T17:02:58.838Z,1.10
2022-08-11T17:08:24.270Z,1.42
2022-08-11T17:13:34.625Z,1.30
2022-08-11T17:18:45.812Z,1.20
2022-08-11T17:23:54.999Z,1.40
2022-08-11T17:29:01.282Z,1.30
2022-08-11T17:34:24.998Z,1.37
2022-08-11T17:39:31.960Z,1.47
2022-08-11T17:44:54.343Z,1.40
2022-08-11T17:50:16.240Z,1.45
2022-08-11T17:55:51.970Z,1.20
2022-08-11T18:00:58.406Z,1.70
2022-08-11T18:06:15.381Z,1.67
2022-08-11T18:12:06.524Z,1.40
2022-08-11T18:17:18.977Z,1.50
2022-08-11T18:22:49.160Z,1.40
2022-08-11T18:28:14.234Z,1.40
2022-08-11T18:34:05.969Z,1.50
2022-08-11T18:39:32.626Z,1.40
2022-08-11T18:44:55.669Z,1.80
2022-08-11T18:50:23.838Z,1.52
2022-08-11T18:56:01.481Z,1.48
2022-08-11T19:01:25.226Z,1.58
2022-08-11T19:06:48.612Z,1.52
2022-08-11T19:12:12.060Z,1.55
2022-08-11T19:17:43.611Z,1.42
2022-08-11T19:23:07.716Z,1.80
2022-08-11T19:28:30.281Z,1.58
2022-08-11T19:34:02.867Z,1.58
2022-08-11T19:39:33.078Z,1.60
2022-08-11T19:44:56.136Z,1.67
2022-08-11T19:50:24.376Z,1.58
2022-08-11T19:55:46.400Z,1.60
2022-08-11T20:01:08.984Z,1.70
2022-08-11T20:06:31.981Z,1.70
2022-08-11T20:11:57.465Z,1.60
2022-08-11T20:17:21.196Z,1.73
2022-08-11T20:22:43.507Z,1.63
2022-08-11T20:28:05.873Z,1.80
2022-08-11T20:33:28.996Z,2.00
2022-08-11T20:38:52.448Z,1.52
2022-08-11T20:44:14.510Z,1.90
2022-08-11T20:49:45.017Z,1.83
2022-08-11T20:55:19.094Z,1.87
2022-08-11T21:00:47.853Z,2.00
2022-08-11T21:06:11.284Z,2.23
2022-08-11T21:11:33.687Z,1.90
2022-08-11T21:16:55.609Z,2.10
2022-08-11T21:22:21.962Z,1.90
2022-08-11T21:27:52.924Z,1.70
2022-08-11T21:33:15.152Z,1.80
2022-08-11T21:38:37.351Z,2.03
2022-08-11T21:44:00.498Z,1.75
2022-08-11T21:49:22.153Z,1.90
2022-08-11T21:54:45.398Z,2.05
2022-08-11T22:00:10.812Z,2.00
2022-08-11T22:05:34.829Z,1.90
2022-08-11T22:10:57.999Z,1.95
2022-08-11T22:16:18.920Z,2.10
2022-08-11T22:21:56.535Z,2.00
2022-08-11T22:27:24.349Z,1.85
2022-08-11T22:32:45.814Z,1.90
2022-08-11T22:38:07.921Z,1.90
2022-08-11T22:43:30.586Z,2.13
2022-08-11T22:48:52.179Z,2.00
2022-08-11T22:54:14.346Z,1.88
2022-08-11T22:59:37.814Z,2.00
2022-08-11T23:04:59.415Z,2.30
2022-08-11T23:10:21.466Z,2.10
2022-08-11T23:15:44.361Z,2.10
2022-08-11T23:21:05.231Z,1.90
2022-08-11T23:26:26.242Z,2.00
2022-08-11T23:31:53.452Z,2.13
2022-08-11T23:37:15.043Z,2.22
2022-08-11T23:42:36.322Z,2.30
2022-08-11T23:48:00.358Z,2.50
2022-08-11T23:53:22.275Z,2.40
2022-08-11T23:58:42.811Z,2.30
